sensor_id;sensor_type;location;lat;lon;timestamp;temperature;humidity
21770;DHT22;11046;49.558;8.674;2024-03-07T00:00:13;6.20;99.90
21770;DHT22;11046;49.558;8.674;2024-03-07T00:03:22;6.10;99.90
21770;DHT22;11046;49.558;8.674;2024-03-07T00:06:24;6.20;99.90
21770;DHT22;11046;49.558;8.674;2024-03-07T00:09:25;6.20;99.90
21770;DHT22;11046;49.558;8.674;2024-03-07T00:12:26;6.10;99.90
21770;DHT22;11046;49.558;8.674;2024-03-07T00:15:27;6.10;99.90
21770;DHT22;11046;49.558;8.674;2024-03-07T00:18:30;6.10;99.90
21770;DHT22;11046;49.558;8.674;2024-03-07T00:21:31;6.10;99.90
21770;DHT22;11046;49.558;8.674;2024-03-07T00:24:31;6.20;99.90
21770;DHT22;11046;49.558;8.674;2024-03-07T00:27:32;6.10;99.90
21770;DHT22;11046;49.558;8.674;2024-03-07T00:30:33;6.00;99.90
21770;DHT22;11046;49.558;8.674;2024-03-07T00:33:34;6.00;99.90
21770;DHT22;11046;49.558;8.674;2024-03-07T00:36:35;6.00;99.90
21770;DHT22;11046;49.558;8.674;2024-03-07T00:39:35;6.00;99.90
21770;DHT22;11046;49.558;8.674;2024-03-07T00:42:36;5.90;99.90
21770;DHT22;11046;49.558;8.674;2024-03-07T00:45:37;5.90;99.90
21770;DHT22;11046;49.558;8.674;2024-03-07T00:48:37;5.90;99.90
21770;DHT22;11046;49.558;8.674;2024-03-07T00:51:38;5.80;99.90
21770;DHT22;11046;49.558;8.674;2024-03-07T00:54:39;5.80;99.90
21770;DHT22;11046;49.558;8.674;2024-03-07T00:57:40;5.90;99.90
21770;DHT22;11046;49.558;8.674;2024-03-07T01:00:41;5.80;99.90
21770;DHT22;11046;49.558;8.674;2024-03-07T01:03:43;5.70;99.90
21770;DHT22;11046;49.558;8.674;2024-03-07T01:06:44;5.60;99.90
21770;DHT22;11046;49.558;8.674;2024-03-07T01:09:45;5.60;99.90
21770;DHT22;11046;49.558;8.674;2024-03-07T01:12:45;5.60;99.90
21770;DHT22;11046;49.558;8.674;2024-03-07T01:15:46;5.60;99.90
21770;DHT22;11046;49.558;8.674;2024-03-07T01:18:47;5.50;99.90
21770;DHT22;11046;49.558;8.674;2024-03-07T01:21:48;5.40;99.90
21770;DHT22;11046;49.558;8.674;2024-03-07T01:24:48;5.40;99.90
21770;DHT22;11046;49.558;8.674;2024-03-07T01:27:51;5.20;99.90
21770;DHT22;11046;49.558;8.674;2024-03-07T01:30:51;5.10;99.90
21770;DHT22;11046;49.558;8.674;2024-03-07T01:33:53;5.10;99.90
21770;DHT22;11046;49.558;8.674;2024-03-07T01:36:54;5.20;99.90
21770;DHT22;11046;49.558;8.674;2024-03-07T01:39:54;5.10;99.90
21770;DHT22;11046;49.558;8.674;2024-03-07T01:42:55;5.00;99.90
21770;DHT22;11046;49.558;8.674;2024-03-07T01:45:56;5.10;99.90
21770;DHT22;11046;49.558;8.674;2024-03-07T01:48:59;5.00;99.90
21770;DHT22;11046;49.558;8.674;2024-03-07T01:52:00;4.90;99.90
21770;DHT22;11046;49.558;8.674;2024-03-07T01:55:02;4.90;99.90
21770;DHT22;11046;49.558;8.674;2024-03-07T01:58:04;4.90;99.90
21770;DHT22;11046;49.558;8.674;2024-03-07T02:01:06;4.90;99.90
21770;DHT22;11046;49.558;8.674;2024-03-07T02:04:07;4.90;99.90
21770;DHT22;11046;49.558;8.674;2024-03-07T02:07:08;4.80;99.90
21770;DHT22;11046;49.558;8.674;2024-03-07T02:10:11;4.80;99.90
21770;DHT22;11046;49.558;8.674;2024-03-07T02:13:12;4.80;99.90
21770;DHT22;11046;49.558;8.674;2024-03-07T02:16:13;4.70;99.90
21770;DHT22;11046;49.558;8.674;2024-03-07T02:19:14;4.60;99.90
21770;DHT22;11046;49.558;8.674;2024-03-07T02:22:16;4.50;99.90
21770;DHT22;11046;49.558;8.674;2024-03-07T02:25:16;4.50;99.90
21770;DHT22;11046;49.558;8.674;2024-03-07T02:28:17;4.40;99.90
21770;DHT22;11046;49.558;8.674;2024-03-07T02:31:17;4.40;99.90
21770;DHT22;11046;49.558;8.674;2024-03-07T02:34:19;4.30;99.90
21770;DHT22;11046;49.558;8.674;2024-03-07T02:37:20;4.30;99.90
21770;DHT22;11046;49.558;8.674;2024-03-07T02:40:20;4.30;99.90
21770;DHT22;11046;49.558;8.674;2024-03-07T02:46:38;4.20;99.90
21770;DHT22;11046;49.558;8.674;2024-03-07T02:49:39;4.30;99.90
21770;DHT22;11046;49.558;8.674;2024-03-07T02:52:39;4.20;99.90
21770;DHT22;11046;49.558;8.674;2024-03-07T02:55:40;4.10;99.90
21770;DHT22;11046;49.558;8.674;2024-03-07T02:58:41;4.00;99.90
21770;DHT22;11046;49.558;8.674;2024-03-07T03:01:42;4.00;99.90
21770;DHT22;11046;49.558;8.674;2024-03-07T03:04:43;3.90;99.90
21770;DHT22;11046;49.558;8.674;2024-03-07T03:07:44;3.90;99.90
21770;DHT22;11046;49.558;8.674;2024-03-07T03:10:53;3.90;99.90
21770;DHT22;11046;49.558;8.674;2024-03-07T03:13:53;3.80;99.90
21770;DHT22;11046;49.558;8.674;2024-03-07T03:16:54;3.60;99.90
21770;DHT22;11046;49.558;8.674;2024-03-07T03:19:55;3.60;99.90
21770;DHT22;11046;49.558;8.674;2024-03-07T03:22:57;3.50;99.90
21770;DHT22;11046;49.558;8.674;2024-03-07T03:25:57;3.50;99.90
21770;DHT22;11046;49.558;8.674;2024-03-07T03:28:58;3.50;99.90
21770;DHT22;11046;49.558;8.674;2024-03-07T03:31:59;3.40;99.90
21770;DHT22;11046;49.558;8.674;2024-03-07T03:34:59;3.40;99.90
21770;DHT22;11046;49.558;8.674;2024-03-07T03:38:00;3.30;99.90
21770;DHT22;11046;49.558;8.674;2024-03-07T03:41:01;3.20;99.90
21770;DHT22;11046;49.558;8.674;2024-03-07T03:44:02;3.10;99.90
21770;DHT22;11046;49.558;8.674;2024-03-07T03:47:04;3.00;99.90
21770;DHT22;11046;49.558;8.674;2024-03-07T03:50:05;3.00;99.90
21770;DHT22;11046;49.558;8.674;2024-03-07T03:53:06;3.00;99.90
21770;DHT22;11046;49.558;8.674;2024-03-07T03:56:10;3.10;99.90
21770;DHT22;11046;49.558;8.674;2024-03-07T03:59:12;3.10;99.90
21770;DHT22;11046;49.558;8.674;2024-03-07T04:02:13;3.00;99.90
21770;DHT22;11046;49.558;8.674;2024-03-07T04:05:15;3.00;99.90
21770;DHT22;11046;49.558;8.674;2024-03-07T04:08:16;3.00;99.90
21770;DHT22;11046;49.558;8.674;2024-03-07T04:11:17;3.00;99.90
21770;DHT22;11046;49.558;8.674;2024-03-07T04:14:18;2.90;99.90
21770;DHT22;11046;49.558;8.674;2024-03-07T04:17:20;2.80;99.90
21770;DHT22;11046;49.558;8.674;2024-03-07T04:20:21;2.80;99.90
21770;DHT22;11046;49.558;8.674;2024-03-07T04:23:22;2.90;99.90
21770;DHT22;11046;49.558;8.674;2024-03-07T04:26:22;2.80;99.90
21770;DHT22;11046;49.558;8.674;2024-03-07T04:29:23;2.80;99.90
21770;DHT22;11046;49.558;8.674;2024-03-07T04:32:23;2.80;99.90
21770;DHT22;11046;49.558;8.674;2024-03-07T04:35:24;2.70;99.90
21770;DHT22;11046;49.558;8.674;2024-03-07T04:38:24;2.80;99.90
21770;DHT22;11046;49.558;8.674;2024-03-07T04:41:27;2.80;99.90
21770;DHT22;11046;49.558;8.674;2024-03-07T04:44:30;2.80;99.90
21770;DHT22;11046;49.558;8.674;2024-03-07T04:47:30;2.70;99.90
21770;DHT22;11046;49.558;8.674;2024-03-07T04:50:31;2.60;99.90
21770;DHT22;11046;49.558;8.674;2024-03-07T04:53:32;2.50;99.90
21770;DHT22;11046;49.558;8.674;2024-03-07T04:56:33;2.60;99.90
21770;DHT22;11046;49.558;8.674;2024-03-07T04:59:33;2.60;99.90
21770;DHT22;11046;49.558;8.674;2024-03-07T05:02:34;2.70;99.90
21770;DHT22;11046;49.558;8.674;2024-03-07T05:05:34;2.70;99.90
21770;DHT22;11046;49.558;8.674;2024-03-07T05:08:35;2.60;99.90
21770;DHT22;11046;49.558;8.674;2024-03-07T05:11:36;2.60;99.90
21770;DHT22;11046;49.558;8.674;2024-03-07T05:14:37;2.50;99.90
21770;DHT22;11046;49.558;8.674;2024-03-07T05:17:38;2.60;99.90
21770;DHT22;11046;49.558;8.674;2024-03-07T05:20:39;2.50;99.90
21770;DHT22;11046;49.558;8.674;2024-03-07T05:23:40;2.40;99.90
21770;DHT22;11046;49.558;8.674;2024-03-07T05:26:40;2.30;99.90
21770;DHT22;11046;49.558;8.674;2024-03-07T05:29:41;2.20;99.90
21770;DHT22;11046;49.558;8.674;2024-03-07T05:32:42;2.20;99.90
21770;DHT22;11046;49.558;8.674;2024-03-07T05:35:43;2.20;99.90
21770;DHT22;11046;49.558;8.674;2024-03-07T05:38:44;2.30;99.90
21770;DHT22;11046;49.558;8.674;2024-03-07T05:41:45;2.30;99.90
21770;DHT22;11046;49.558;8.674;2024-03-07T05:44:46;2.40;99.90
21770;DHT22;11046;49.558;8.674;2024-03-07T05:47:47;2.30;99.90
21770;DHT22;11046;49.558;8.674;2024-03-07T05:50:48;2.40;99.90
21770;DHT22;11046;49.558;8.674;2024-03-07T05:53:49;2.40;99.90
21770;DHT22;11046;49.558;8.674;2024-03-07T05:56:50;2.40;99.90
21770;DHT22;11046;49.558;8.674;2024-03-07T06:03:36;2.40;99.90
21770;DHT22;11046;49.558;8.674;2024-03-07T06:06:37;2.30;99.90
21770;DHT22;11046;49.558;8.674;2024-03-07T06:09:38;2.30;99.90
21770;DHT22;11046;49.558;8.674;2024-03-07T06:12:38;2.40;99.90
21770;DHT22;11046;49.558;8.674;2024-03-07T06:15:46;2.40;99.90
21770;DHT22;11046;49.558;8.674;2024-03-07T06:18:48;2.30;99.90
21770;DHT22;11046;49.558;8.674;2024-03-07T06:21:48;2.30;99.90
21770;DHT22;11046;49.558;8.674;2024-03-07T06:24:49;2.10;99.90
21770;DHT22;11046;49.558;8.674;2024-03-07T06:27:50;1.70;99.90
21770;DHT22;11046;49.558;8.674;2024-03-07T06:30:52;1.60;99.90
21770;DHT22;11046;49.558;8.674;2024-03-07T06:33:53;1.60;99.90
21770;DHT22;11046;49.558;8.674;2024-03-07T06:36:53;1.70;99.90
21770;DHT22;11046;49.558;8.674;2024-03-07T06:39:55;1.80;99.90
21770;DHT22;11046;49.558;8.674;2024-03-07T06:42:56;2.00;99.90
21770;DHT22;11046;49.558;8.674;2024-03-07T06:45:57;2.10;99.90
21770;DHT22;11046;49.558;8.674;2024-03-07T06:48:57;2.30;99.90
21770;DHT22;11046;49.558;8.674;2024-03-07T06:51:58;2.40;99.90
21770;DHT22;11046;49.558;8.674;2024-03-07T06:54:58;2.40;99.90
21770;DHT22;11046;49.558;8.674;2024-03-07T06:58:00;2.30;99.90
21770;DHT22;11046;49.558;8.674;2024-03-07T07:01:00;2.20;99.90
21770;DHT22;11046;49.558;8.674;2024-03-07T07:04:01;2.10;99.90
21770;DHT22;11046;49.558;8.674;2024-03-07T07:07:04;2.00;99.90
21770;DHT22;11046;49.558;8.674;2024-03-07T07:10:05;2.00;99.90
21770;DHT22;11046;49.558;8.674;2024-03-07T07:13:09;2.20;99.90
21770;DHT22;11046;49.558;8.674;2024-03-07T07:16:10;2.40;99.90
21770;DHT22;11046;49.558;8.674;2024-03-07T07:19:11;2.40;99.90
21770;DHT22;11046;49.558;8.674;2024-03-07T07:22:13;2.50;99.90
21770;DHT22;11046;49.558;8.674;2024-03-07T07:25:14;2.50;99.90
21770;DHT22;11046;49.558;8.674;2024-03-07T07:28:14;2.50;99.90
21770;DHT22;11046;49.558;8.674;2024-03-07T07:31:15;2.70;99.90
21770;DHT22;11046;49.558;8.674;2024-03-07T07:34:16;2.80;99.90
21770;DHT22;11046;49.558;8.674;2024-03-07T07:37:17;3.00;99.90
21770;DHT22;11046;49.558;8.674;2024-03-07T07:40:19;3.10;99.90
21770;DHT22;11046;49.558;8.674;2024-03-07T07:43:19;3.00;99.90
21770;DHT22;11046;49.558;8.674;2024-03-07T07:46:20;2.90;99.90
21770;DHT22;11046;49.558;8.674;2024-03-07T07:49:21;2.80;99.90
21770;DHT22;11046;49.558;8.674;2024-03-07T07:52:21;3.00;99.90
21770;DHT22;11046;49.558;8.674;2024-03-07T07:55:27;2.90;99.90
21770;DHT22;11046;49.558;8.674;2024-03-07T07:58:27;3.00;99.90
21770;DHT22;11046;49.558;8.674;2024-03-07T08:01:28;3.00;99.90
21770;DHT22;11046;49.558;8.674;2024-03-07T08:04:29;3.00;99.90
21770;DHT22;11046;49.558;8.674;2024-03-07T08:07:29;3.00;99.90
21770;DHT22;11046;49.558;8.674;2024-03-07T08:10:31;3.00;99.90
21770;DHT22;11046;49.558;8.674;2024-03-07T08:13:32;3.00;99.90
21770;DHT22;11046;49.558;8.674;2024-03-07T08:16:32;3.20;99.90
21770;DHT22;11046;49.558;8.674;2024-03-07T08:19:34;3.20;99.90
21770;DHT22;11046;49.558;8.674;2024-03-07T08:22:34;3.20;99.90
21770;DHT22;11046;49.558;8.674;2024-03-07T08:25:35;3.30;99.90
21770;DHT22;11046;49.558;8.674;2024-03-07T08:28:35;3.60;99.90
21770;DHT22;11046;49.558;8.674;2024-03-07T08:31:36;3.70;99.90
21770;DHT22;11046;49.558;8.674;2024-03-07T08:34:38;3.80;99.90
21770;DHT22;11046;49.558;8.674;2024-03-07T08:37:39;4.00;99.90
21770;DHT22;11046;49.558;8.674;2024-03-07T08:40:40;4.10;99.90
21770;DHT22;11046;49.558;8.674;2024-03-07T08:43:41;4.60;99.90
21770;DHT22;11046;49.558;8.674;2024-03-07T08:46:41;5.20;99.90
21770;DHT22;11046;49.558;8.674;2024-03-07T08:49:44;5.30;99.90
21770;DHT22;11046;49.558;8.674;2024-03-07T08:52:48;5.40;99.90
21770;DHT22;11046;49.558;8.674;2024-03-07T08:55:49;5.50;99.90
21770;DHT22;11046;49.558;8.674;2024-03-07T08:58:51;5.90;99.90
21770;DHT22;11046;49.558;8.674;2024-03-07T09:01:51;6.30;99.90
21770;DHT22;11046;49.558;8.674;2024-03-07T09:04:52;6.70;99.90
21770;DHT22;11046;49.558;8.674;2024-03-07T09:07:56;7.00;99.90
21770;DHT22;11046;49.558;8.674;2024-03-07T09:10:59;7.50;99.90
21770;DHT22;11046;49.558;8.674;2024-03-07T09:13:59;7.60;99.90
21770;DHT22;11046;49.558;8.674;2024-03-07T09:17:00;7.60;99.90
21770;DHT22;11046;49.558;8.674;2024-03-07T09:20:00;7.50;99.90
21770;DHT22;11046;49.558;8.674;2024-03-07T09:23:01;7.40;99.90
21770;DHT22;11046;49.558;8.674;2024-03-07T09:26:02;7.20;99.90
21770;DHT22;11046;49.558;8.674;2024-03-07T09:29:03;7.20;99.90
21770;DHT22;11046;49.558;8.674;2024-03-07T09:32:06;7.40;99.90
21770;DHT22;11046;49.558;8.674;2024-03-07T09:35:10;7.40;99.90
21770;DHT22;11046;49.558;8.674;2024-03-07T09:38:14;7.40;99.90
21770;DHT22;11046;49.558;8.674;2024-03-07T09:41:15;7.40;99.90
21770;DHT22;11046;49.558;8.674;2024-03-07T09:44:20;7.40;99.90
21770;DHT22;11046;49.558;8.674;2024-03-07T09:47:23;7.20;99.90
21770;DHT22;11046;49.558;8.674;2024-03-07T09:50:26;7.20;99.90
21770;DHT22;11046;49.558;8.674;2024-03-07T09:53:29;7.20;99.90
21770;DHT22;11046;49.558;8.674;2024-03-07T09:56:31;7.40;99.90
21770;DHT22;11046;49.558;8.674;2024-03-07T09:59:36;7.40;99.80
21770;DHT22;11046;49.558;8.674;2024-03-07T10:02:40;7.30;99.60
21770;DHT22;11046;49.558;8.674;2024-03-07T10:05:44;7.20;99.70
21770;DHT22;11046;49.558;8.674;2024-03-07T10:08:45;7.10;99.70
21770;DHT22;11046;49.558;8.674;2024-03-07T10:11:56;7.30;99.70
21770;DHT22;11046;49.558;8.674;2024-03-07T10:14:56;7.50;99.40
21770;DHT22;11046;49.558;8.674;2024-03-07T10:18:00;7.70;99.30
21770;DHT22;11046;49.558;8.674;2024-03-07T10:21:01;7.80;99.10
21770;DHT22;11046;49.558;8.674;2024-03-07T10:24:05;7.70;98.90
21770;DHT22;11046;49.558;8.674;2024-03-07T10:27:09;7.80;98.70
21770;DHT22;11046;49.558;8.674;2024-03-07T10:30:10;8.10;98.80
21770;DHT22;11046;49.558;8.674;2024-03-07T10:33:14;8.40;98.40
21770;DHT22;11046;49.558;8.674;2024-03-07T10:36:15;8.60;98.00
21770;DHT22;11046;49.558;8.674;2024-03-07T10:39:15;8.90;97.60
21770;DHT22;11046;49.558;8.674;2024-03-07T10:42:18;9.10;97.50
21770;DHT22;11046;49.558;8.674;2024-03-07T10:45:19;9.20;97.30
21770;DHT22;11046;49.558;8.674;2024-03-07T10:48:25;9.10;97.30
21770;DHT22;11046;49.558;8.674;2024-03-07T10:51:37;9.20;97.20
21770;DHT22;11046;49.558;8.674;2024-03-07T10:54:48;9.20;97.10
21770;DHT22;11046;49.558;8.674;2024-03-07T10:58:02;9.20;96.80
21770;DHT22;11046;49.558;8.674;2024-03-07T11:01:07;9.10;96.80
21770;DHT22;11046;49.558;8.674;2024-03-07T11:04:12;9.30;97.00
21770;DHT22;11046;49.558;8.674;2024-03-07T11:07:16;9.70;97.00
21770;DHT22;11046;49.558;8.674;2024-03-07T11:10:18;9.90;96.50
21770;DHT22;11046;49.558;8.674;2024-03-07T11:13:21;10.20;96.40
21770;DHT22;11046;49.558;8.674;2024-03-07T11:16:22;10.40;95.90
21770;DHT22;11046;49.558;8.674;2024-03-07T11:19:28;10.30;95.50
21770;DHT22;11046;49.558;8.674;2024-03-07T11:22:32;10.10;95.50
21770;DHT22;11046;49.558;8.674;2024-03-07T11:25:35;10.00;95.60
21770;DHT22;11046;49.558;8.674;2024-03-07T11:28:37;10.00;95.80
21770;DHT22;11046;49.558;8.674;2024-03-07T11:31:37;10.10;95.60
21770;DHT22;11046;49.558;8.674;2024-03-07T11:34:43;10.10;95.30
21770;DHT22;11046;49.558;8.674;2024-03-07T11:37:47;10.10;95.20
21770;DHT22;11046;49.558;8.674;2024-03-07T11:40:50;10.10;95.20
21770;DHT22;11046;49.558;8.674;2024-03-07T11:43:52;10.00;94.90
21770;DHT22;11046;49.558;8.674;2024-03-07T11:46:55;10.00;95.10
21770;DHT22;11046;49.558;8.674;2024-03-07T11:49:56;10.00;95.20
21770;DHT22;11046;49.558;8.674;2024-03-07T11:52:58;10.50;95.30
21770;DHT22;11046;49.558;8.674;2024-03-07T11:56:00;10.90;94.80
21770;DHT22;11046;49.558;8.674;2024-03-07T11:59:05;11.10;94.30
21770;DHT22;11046;49.558;8.674;2024-03-07T12:02:05;11.20;94.30
21770;DHT22;11046;49.558;8.674;2024-03-07T12:05:06;11.20;94.20
21770;DHT22;11046;49.558;8.674;2024-03-07T12:08:07;11.30;94.30
21770;DHT22;11046;49.558;8.674;2024-03-07T12:11:10;11.30;93.90
21770;DHT22;11046;49.558;8.674;2024-03-07T12:14:16;11.30;93.80
21770;DHT22;11046;49.558;8.674;2024-03-07T12:17:18;11.50;93.90
21770;DHT22;11046;49.558;8.674;2024-03-07T12:20:19;11.50;93.60
21770;DHT22;11046;49.558;8.674;2024-03-07T12:23:31;11.70;93.70
21770;DHT22;11046;49.558;8.674;2024-03-07T12:26:33;11.80;93.60
21770;DHT22;11046;49.558;8.674;2024-03-07T12:29:33;11.80;92.90
21770;DHT22;11046;49.558;8.674;2024-03-07T12:32:35;11.30;93.00
21770;DHT22;11046;49.558;8.674;2024-03-07T12:35:36;11.20;93.30
21770;DHT22;11046;49.558;8.674;2024-03-07T12:38:37;11.00;92.70
21770;DHT22;11046;49.558;8.674;2024-03-07T12:41:38;10.80;92.60
21770;DHT22;11046;49.558;8.674;2024-03-07T12:44:44;10.60;92.70
21770;DHT22;11046;49.558;8.674;2024-03-07T12:47:48;10.40;92.50
21770;DHT22;11046;49.558;8.674;2024-03-07T12:50:53;10.30;92.80
21770;DHT22;11046;49.558;8.674;2024-03-07T12:53:53;10.30;92.90
21770;DHT22;11046;49.558;8.674;2024-03-07T12:56:54;10.20;92.80
21770;DHT22;11046;49.558;8.674;2024-03-07T12:59:55;10.30;92.90
21770;DHT22;11046;49.558;8.674;2024-03-07T13:02:55;10.40;92.80
21770;DHT22;11046;49.558;8.674;2024-03-07T13:05:58;10.50;92.60
21770;DHT22;11046;49.558;8.674;2024-03-07T13:09:02;10.70;92.50
21770;DHT22;11046;49.558;8.674;2024-03-07T13:12:04;10.70;92.40
21770;DHT22;11046;49.558;8.674;2024-03-07T13:15:09;10.80;92.40
21770;DHT22;11046;49.558;8.674;2024-03-07T13:18:13;10.90;92.40
21770;DHT22;11046;49.558;8.674;2024-03-07T13:21:14;10.80;92.40
21770;DHT22;11046;49.558;8.674;2024-03-07T13:24:17;10.70;92.50
21770;DHT22;11046;49.558;8.674;2024-03-07T13:27:18;10.80;92.70
21770;DHT22;11046;49.558;8.674;2024-03-07T13:30:28;10.80;92.50
21770;DHT22;11046;49.558;8.674;2024-03-07T13:33:29;10.70;92.30
21770;DHT22;11046;49.558;8.674;2024-03-07T13:36:30;10.60;92.50
21770;DHT22;11046;49.558;8.674;2024-03-07T13:39:30;10.60;92.60
21770;DHT22;11046;49.558;8.674;2024-03-07T13:42:31;10.70;92.60
21770;DHT22;11046;49.558;8.674;2024-03-07T13:45:34;10.70;92.90
21770;DHT22;11046;49.558;8.674;2024-03-07T13:48:46;10.50;92.40
21770;DHT22;11046;49.558;8.674;2024-03-07T13:51:47;10.40;92.40
21770;DHT22;11046;49.558;8.674;2024-03-07T13:54:51;10.20;92.50
21770;DHT22;11046;49.558;8.674;2024-03-07T13:57:57;10.20;92.60
21770;DHT22;11046;49.558;8.674;2024-03-07T14:11:54;10.10;92.40
21770;DHT22;11046;49.558;8.674;2024-03-07T14:21:47;10.10;92.50
21770;DHT22;11046;49.558;8.674;2024-03-07T14:25:11;10.20;92.50
21770;DHT22;11046;49.558;8.674;2024-03-07T14:31:46;10.30;92.10
21770;DHT22;11046;49.558;8.674;2024-03-07T14:38:43;10.10;91.90
21770;DHT22;11046;49.558;8.674;2024-03-07T14:41:59;10.20;92.10
21770;DHT22;11046;49.558;8.674;2024-03-07T14:45:06;10.20;91.80
21770;DHT22;11046;49.558;8.674;2024-03-07T14:48:16;10.10;91.90
21770;DHT22;11046;49.558;8.674;2024-03-07T14:51:17;10.00;91.80
21770;DHT22;11046;49.558;8.674;2024-03-07T14:54:18;10.00;91.80
21770;DHT22;11046;49.558;8.674;2024-03-07T14:57:26;10.10;91.70
21770;DHT22;11046;49.558;8.674;2024-03-07T15:00:29;10.00;91.70
21770;DHT22;11046;49.558;8.674;2024-03-07T15:03:34;9.90;91.60
21770;DHT22;11046;49.558;8.674;2024-03-07T15:06:35;9.90;91.70
21770;DHT22;11046;49.558;8.674;2024-03-07T15:09:36;10.10;91.70
21770;DHT22;11046;49.558;8.674;2024-03-07T15:12:38;10.20;91.40
21770;DHT22;11046;49.558;8.674;2024-03-07T15:15:39;10.10;91.40
21770;DHT22;11046;49.558;8.674;2024-03-07T15:18:40;10.00;91.30
21770;DHT22;11046;49.558;8.674;2024-03-07T15:21:46;9.90;91.30
21770;DHT22;11046;49.558;8.674;2024-03-07T15:24:48;9.90;91.40
21770;DHT22;11046;49.558;8.674;2024-03-07T15:27:56;10.00;91.40
21770;DHT22;11046;49.558;8.674;2024-03-07T15:30:57;10.00;91.10
21770;DHT22;11046;49.558;8.674;2024-03-07T15:34:00;10.00;91.20
21770;DHT22;11046;49.558;8.674;2024-03-07T15:37:01;9.90;91.10
21770;DHT22;11046;49.558;8.674;2024-03-07T15:40:09;9.80;91.10
21770;DHT22;11046;49.558;8.674;2024-03-07T15:43:13;9.70;91.10
21770;DHT22;11046;49.558;8.674;2024-03-07T15:46:16;9.60;91.20
21770;DHT22;11046;49.558;8.674;2024-03-07T15:49:18;9.60;91.30
21770;DHT22;11046;49.558;8.674;2024-03-07T15:52:19;9.40;91.40
21770;DHT22;11046;49.558;8.674;2024-03-07T15:55:20;9.30;91.60
21770;DHT22;11046;49.558;8.674;2024-03-07T15:58:24;9.30;91.70
21770;DHT22;11046;49.558;8.674;2024-03-07T16:01:25;9.40;91.70
21770;DHT22;11046;49.558;8.674;2024-03-07T16:04:26;9.30;91.70
21770;DHT22;11046;49.558;8.674;2024-03-07T16:07:27;9.20;91.70
21770;DHT22;11046;49.558;8.674;2024-03-07T16:10:29;9.10;91.60
21770;DHT22;11046;49.558;8.674;2024-03-07T16:13:33;9.00;91.80
21770;DHT22;11046;49.558;8.674;2024-03-07T16:16:39;8.90;91.80
21770;DHT22;11046;49.558;8.674;2024-03-07T16:19:42;8.90;91.80
21770;DHT22;11046;49.558;8.674;2024-03-07T16:22:46;8.80;91.90
21770;DHT22;11046;49.558;8.674;2024-03-07T16:25:51;8.80;91.90
21770;DHT22;11046;49.558;8.674;2024-03-07T16:28:51;8.80;91.80
21770;DHT22;11046;49.558;8.674;2024-03-07T16:31:53;8.80;91.80
21770;DHT22;11046;49.558;8.674;2024-03-07T16:34:54;8.80;91.80
21770;DHT22;11046;49.558;8.674;2024-03-07T16:37:55;8.80;91.80
21770;DHT22;11046;49.558;8.674;2024-03-07T16:40:57;8.80;91.80
21770;DHT22;11046;49.558;8.674;2024-03-07T16:43:57;8.70;91.70
21770;DHT22;11046;49.558;8.674;2024-03-07T16:46:58;8.70;91.80
21770;DHT22;11046;49.558;8.674;2024-03-07T16:49:59;8.60;91.80
21770;DHT22;11046;49.558;8.674;2024-03-07T16:53:01;8.70;91.80
21770;DHT22;11046;49.558;8.674;2024-03-07T16:56:05;8.70;91.80
21770;DHT22;11046;49.558;8.674;2024-03-07T16:59:07;8.60;91.90
21770;DHT22;11046;49.558;8.674;2024-03-07T17:02:08;8.70;91.90
21770;DHT22;11046;49.558;8.674;2024-03-07T17:05:10;8.70;91.90
21770;DHT22;11046;49.558;8.674;2024-03-07T17:08:18;8.60;91.90
21770;DHT22;11046;49.558;8.674;2024-03-07T17:11:21;8.40;92.00
21770;DHT22;11046;49.558;8.674;2024-03-07T17:14:22;8.50;92.10
21770;DHT22;11046;49.558;8.674;2024-03-07T17:17:24;8.40;92.10
21770;DHT22;11046;49.558;8.674;2024-03-07T17:20:26;8.40;92.10
21770;DHT22;11046;49.558;8.674;2024-03-07T17:23:27;8.20;92.20
21770;DHT22;11046;49.558;8.674;2024-03-07T17:26:28;8.20;92.30
21770;DHT22;11046;49.558;8.674;2024-03-07T17:29:30;8.20;92.30
21770;DHT22;11046;49.558;8.674;2024-03-07T17:32:34;8.20;92.30
21770;DHT22;11046;49.558;8.674;2024-03-07T17:35:34;8.20;92.30
21770;DHT22;11046;49.558;8.674;2024-03-07T17:38:40;8.20;92.30
21770;DHT22;11046;49.558;8.674;2024-03-07T17:41:41;8.20;92.30
21770;DHT22;11046;49.558;8.674;2024-03-07T17:44:42;8.20;92.30
21770;DHT22;11046;49.558;8.674;2024-03-07T17:47:43;8.10;92.30
21770;DHT22;11046;49.558;8.674;2024-03-07T17:50:46;8.00;92.30
21770;DHT22;11046;49.558;8.674;2024-03-07T17:53:47;8.00;92.30
21770;DHT22;11046;49.558;8.674;2024-03-07T17:56:49;8.00;92.30
21770;DHT22;11046;49.558;8.674;2024-03-07T17:59:50;7.90;92.40
21770;DHT22;11046;49.558;8.674;2024-03-07T18:03:03;7.90;92.40
21770;DHT22;11046;49.558;8.674;2024-03-07T18:06:09;7.80;92.50
21770;DHT22;11046;49.558;8.674;2024-03-07T18:09:10;7.90;92.50
21770;DHT22;11046;49.558;8.674;2024-03-07T18:12:27;7.90;92.40
21770;DHT22;11046;49.558;8.674;2024-03-07T18:15:28;7.90;92.40
21770;DHT22;11046;49.558;8.674;2024-03-07T18:18:29;7.80;92.40
21770;DHT22;11046;49.558;8.674;2024-03-07T18:21:32;7.80;92.40
21770;DHT22;11046;49.558;8.674;2024-03-07T18:24:34;7.70;92.40
21770;DHT22;11046;49.558;8.674;2024-03-07T18:27:34;7.80;92.50
21770;DHT22;11046;49.558;8.674;2024-03-07T18:30:35;7.80;92.40
21770;DHT22;11046;49.558;8.674;2024-03-07T18:33:36;7.70;92.50
21770;DHT22;11046;49.558;8.674;2024-03-07T18:36:36;7.70;92.50
21770;DHT22;11046;49.558;8.674;2024-03-07T18:39:37;7.70;92.50
21770;DHT22;11046;49.558;8.674;2024-03-07T18:42:43;7.70;92.40
21770;DHT22;11046;49.558;8.674;2024-03-07T18:45:46;7.70;92.50
21770;DHT22;11046;49.558;8.674;2024-03-07T18:48:47;7.60;92.40
21770;DHT22;11046;49.558;8.674;2024-03-07T18:51:48;7.60;92.50
21770;DHT22;11046;49.558;8.674;2024-03-07T18:54:49;7.50;92.50
21770;DHT22;11046;49.558;8.674;2024-03-07T18:57:50;7.60;92.50
21770;DHT22;11046;49.558;8.674;2024-03-07T19:00:51;7.60;92.90
21770;DHT22;11046;49.558;8.674;2024-03-07T19:03:53;7.60;92.40
21770;DHT22;11046;49.558;8.674;2024-03-07T19:06:53;7.60;92.50
21770;DHT22;11046;49.558;8.674;2024-03-07T19:09:57;7.50;92.50
21770;DHT22;11046;49.558;8.674;2024-03-07T19:12:59;7.50;92.60
21770;DHT22;11046;49.558;8.674;2024-03-07T19:15:59;7.50;92.50
21770;DHT22;11046;49.558;8.674;2024-03-07T19:19:01;7.60;92.40
21770;DHT22;11046;49.558;8.674;2024-03-07T19:22:02;7.60;92.40
21770;DHT22;11046;49.558;8.674;2024-03-07T19:25:05;7.60;92.40
21770;DHT22;11046;49.558;8.674;2024-03-07T19:28:08;7.60;92.40
21770;DHT22;11046;49.558;8.674;2024-03-07T19:31:11;7.60;92.40
21770;DHT22;11046;49.558;8.674;2024-03-07T19:34:15;7.50;92.40
21770;DHT22;11046;49.558;8.674;2024-03-07T19:37:19;7.40;92.50
21770;DHT22;11046;49.558;8.674;2024-03-07T19:40:22;7.40;92.60
21770;DHT22;11046;49.558;8.674;2024-03-07T19:43:23;7.40;92.60
21770;DHT22;11046;49.558;8.674;2024-03-07T19:46:26;7.40;92.60
21770;DHT22;11046;49.558;8.674;2024-03-07T19:49:28;7.30;92.60
21770;DHT22;11046;49.558;8.674;2024-03-07T19:52:29;7.40;92.70
21770;DHT22;11046;49.558;8.674;2024-03-07T19:55:30;7.30;92.70